sensor_id;sensor_type;location;lat;lon;timestamp;P1;durP1;ratioP1;P2;durP2;ratioP2
6735;SDS011;3405;50.576;12.364;2023-04-08T00:01:05;6.47;;;4.63;;
6735;SDS011;3405;50.576;12.364;2023-04-08T00:03:31;5.78;;;4.75;;
6735;SDS011;3405;50.576;12.364;2023-04-08T00:05:57;5.22;;;4.20;;
6735;SDS011;3405;50.576;12.364;2023-04-08T00:08:24;5.75;;;4.35;;
6735;SDS011;3405;50.576;12.364;2023-04-08T00:10:50;6.15;;;4.75;;
6735;SDS011;3405;50.576;12.364;2023-04-08T00:13:16;6.30;;;4.57;;
6735;SDS011;3405;50.576;12.364;2023-04-08T00:15:42;5.60;;;4.28;;
6735;SDS011;3405;50.576;12.364;2023-04-08T00:18:08;4.68;;;4.18;;
6735;SDS011;3405;50.576;12.364;2023-04-08T00:20:34;4.28;;;3.88;;
6735;SDS011;3405;50.576;12.364;2023-04-08T00:23:00;4.82;;;3.97;;
6735;SDS011;3405;50.576;12.364;2023-04-08T00:25:26;5.70;;;4.32;;
6735;SDS011;3405;50.576;12.364;2023-04-08T00:27:52;6.38;;;4.22;;
6735;SDS011;3405;50.576;12.364;2023-04-08T00:30:18;5.20;;;3.72;;
6735;SDS011;3405;50.576;12.364;2023-04-08T00:32:44;5.03;;;4.10;;
6735;SDS011;3405;50.576;12.364;2023-04-08T00:35:10;5.07;;;4.03;;
6735;SDS011;3405;50.576;12.364;2023-04-08T00:37:36;5.68;;;3.88;;
6735;SDS011;3405;50.576;12.364;2023-04-08T00:40:03;5.85;;;3.63;;
6735;SDS011;3405;50.576;12.364;2023-04-08T00:42:29;5.72;;;4.00;;
6735;SDS011;3405;50.576;12.364;2023-04-08T00:44:55;5.50;;;4.22;;
6735;SDS011;3405;50.576;12.364;2023-04-08T00:47:21;5.93;;;4.10;;
6735;SDS011;3405;50.576;12.364;2023-04-08T00:49:47;5.45;;;3.75;;
6735;SDS011;3405;50.576;12.364;2023-04-08T00:52:13;4.15;;;3.67;;
6735;SDS011;3405;50.576;12.364;2023-04-08T00:54:40;4.28;;;3.88;;
6735;SDS011;3405;50.576;12.364;2023-04-08T00:57:06;4.70;;;3.92;;
6735;SDS011;3405;50.576;12.364;2023-04-08T00:59:32;4.88;;;3.80;;
6735;SDS011;3405;50.576;12.364;2023-04-08T01:02:13;3.92;;;3.50;;
6735;SDS011;3405;50.576;12.364;2023-04-08T01:04:48;5.88;;;3.78;;
6735;SDS011;3405;50.576;12.364;2023-04-08T01:07:20;5.10;;;4.10;;
6735;SDS011;3405;50.576;12.364;2023-04-08T01:09:47;4.75;;;3.40;;
6735;SDS011;3405;50.576;12.364;2023-04-08T01:12:17;4.47;;;3.53;;
6735;SDS011;3405;50.576;12.364;2023-04-08T01:14:44;4.43;;;3.90;;
6735;SDS011;3405;50.576;12.364;2023-04-08T01:17:11;4.03;;;3.53;;
6735;SDS011;3405;50.576;12.364;2023-04-08T01:19:38;5.50;;;3.90;;
6735;SDS011;3405;50.576;12.364;2023-04-08T01:22:28;5.28;;;3.67;;
6735;SDS011;3405;50.576;12.364;2023-04-08T01:24:58;4.70;;;3.50;;
6735;SDS011;3405;50.576;12.364;2023-04-08T01:27:26;4.90;;;3.70;;
6735;SDS011;3405;50.576;12.364;2023-04-08T01:29:52;5.10;;;3.80;;
6735;SDS011;3405;50.576;12.364;2023-04-08T01:32:19;4.32;;;3.92;;
6735;SDS011;3405;50.576;12.364;2023-04-08T01:34:45;3.47;;;3.17;;
6735;SDS011;3405;50.576;12.364;2023-04-08T01:37:11;4.40;;;3.40;;
6735;SDS011;3405;50.576;12.364;2023-04-08T01:39:38;3.60;;;3.30;;
6735;SDS011;3405;50.576;12.364;2023-04-08T01:42:04;3.67;;;3.22;;
6735;SDS011;3405;50.576;12.364;2023-04-08T01:44:30;3.60;;;3.30;;
6735;SDS011;3405;50.576;12.364;2023-04-08T01:46:57;3.05;;;2.78;;
6735;SDS011;3405;50.576;12.364;2023-04-08T01:49:24;3.10;;;2.80;;
6735;SDS011;3405;50.576;12.364;2023-04-08T01:51:50;3.38;;;3.08;;
6735;SDS011;3405;50.576;12.364;2023-04-08T01:54:18;3.72;;;2.53;;
6735;SDS011;3405;50.576;12.364;2023-04-08T01:56:44;2.30;;;2.10;;
6735;SDS011;3405;50.576;12.364;2023-04-08T01:59:12;3.17;;;2.72;;
6735;SDS011;3405;50.576;12.364;2023-04-08T02:01:39;3.63;;;2.50;;
6735;SDS011;3405;50.576;12.364;2023-04-08T02:04:06;2.50;;;2.30;;
6735;SDS011;3405;50.576;12.364;2023-04-08T02:06:32;2.40;;;2.20;;
6735;SDS011;3405;50.576;12.364;2023-04-08T02:08:58;2.15;;;2.03;;
6735;SDS011;3405;50.576;12.364;2023-04-08T02:11:25;2.60;;;2.40;;
6735;SDS011;3405;50.576;12.364;2023-04-08T02:13:52;2.38;;;2.17;;
6735;SDS011;3405;50.576;12.364;2023-04-08T02:16:29;2.50;;;2.30;;
6735;SDS011;3405;50.576;12.364;2023-04-08T02:18:58;2.00;;;1.90;;
6735;SDS011;3405;50.576;12.364;2023-04-08T02:21:26;2.38;;;1.92;;
6735;SDS011;3405;50.576;12.364;2023-04-08T02:23:53;2.70;;;1.85;;
6735;SDS011;3405;50.576;12.364;2023-04-08T02:26:20;2.10;;;1.90;;
6735;SDS011;3405;50.576;12.364;2023-04-08T02:28:47;2.22;;;2.03;;
6735;SDS011;3405;50.576;12.364;2023-04-08T02:31:15;1.98;;;1.85;;
6735;SDS011;3405;50.576;12.364;2023-04-08T02:33:41;2.03;;;1.90;;
6735;SDS011;3405;50.576;12.364;2023-04-08T02:36:07;1.73;;;1.63;;
6735;SDS011;3405;50.576;12.364;2023-04-08T02:38:34;1.63;;;1.52;;
6735;SDS011;3405;50.576;12.364;2023-04-08T02:41:00;1.80;;;1.70;;
6735;SDS011;3405;50.576;12.364;2023-04-08T02:43:26;1.73;;;1.63;;
6735;SDS011;3405;50.576;12.364;2023-04-08T02:45:58;1.77;;;1.67;;
6735;SDS011;3405;50.576;12.364;2023-04-08T02:48:27;2.00;;;1.80;;
6735;SDS011;3405;50.576;12.364;2023-04-08T02:50:53;1.63;;;1.52;;
6735;SDS011;3405;50.576;12.364;2023-04-08T02:53:19;1.75;;;1.65;;
6735;SDS011;3405;50.576;12.364;2023-04-08T02:55:45;1.65;;;1.55;;
6735;SDS011;3405;50.576;12.364;2023-04-08T02:58:10;1.63;;;1.52;;
6735;SDS011;3405;50.576;12.364;2023-04-08T03:00:36;1.73;;;1.58;;
6735;SDS011;3405;50.576;12.364;2023-04-08T03:03:03;1.80;;;1.70;;
6735;SDS011;3405;50.576;12.364;2023-04-08T03:05:30;1.80;;;1.70;;
6735;SDS011;3405;50.576;12.364;2023-04-08T03:07:56;2.30;;;1.70;;
6735;SDS011;3405;50.576;12.364;2023-04-08T03:10:22;1.80;;;1.70;;
6735;SDS011;3405;50.576;12.364;2023-04-08T03:12:48;1.98;;;1.88;;
6735;SDS011;3405;50.576;12.364;2023-04-08T03:15:14;1.60;;;1.50;;
6735;SDS011;3405;50.576;12.364;2023-04-08T03:17:40;1.70;;;1.60;;
6735;SDS011;3405;50.576;12.364;2023-04-08T03:20:06;1.70;;;1.60;;
6735;SDS011;3405;50.576;12.364;2023-04-08T03:22:32;1.45;;;1.35;;
6735;SDS011;3405;50.576;12.364;2023-04-08T03:24:58;1.60;;;1.50;;
6735;SDS011;3405;50.576;12.364;2023-04-08T03:27:24;1.60;;;1.50;;
6735;SDS011;3405;50.576;12.364;2023-04-08T03:29:50;1.63;;;1.52;;
6735;SDS011;3405;50.576;12.364;2023-04-08T03:32:17;1.63;;;1.52;;
6735;SDS011;3405;50.576;12.364;2023-04-08T03:34:44;2.03;;;1.83;;
6735;SDS011;3405;50.576;12.364;2023-04-08T03:37:10;1.80;;;1.70;;
6735;SDS011;3405;50.576;12.364;2023-04-08T03:39:37;1.88;;;1.77;;
6735;SDS011;3405;50.576;12.364;2023-04-08T03:42:03;2.20;;;1.80;;
6735;SDS011;3405;50.576;12.364;2023-04-08T03:44:28;2.10;;;1.88;;
6735;SDS011;3405;50.576;12.364;2023-04-08T03:46:54;2.03;;;1.83;;
6735;SDS011;3405;50.576;12.364;2023-04-08T03:49:20;1.80;;;1.70;;
6735;SDS011;3405;50.576;12.364;2023-04-08T03:51:46;2.25;;;1.85;;
6735;SDS011;3405;50.576;12.364;2023-04-08T03:54:12;1.83;;;1.73;;
6735;SDS011;3405;50.576;12.364;2023-04-08T03:56:38;1.88;;;1.77;;
6735;SDS011;3405;50.576;12.364;2023-04-08T03:59:04;2.10;;;1.90;;
6735;SDS011;3405;50.576;12.364;2023-04-08T04:01:30;2.22;;;2.03;;
6735;SDS011;3405;50.576;12.364;2023-04-08T04:03:56;2.13;;;1.92;;
6735;SDS011;3405;50.576;12.364;2023-04-08T04:06:22;2.05;;;1.95;;
6735;SDS011;3405;50.576;12.364;2023-04-08T04:08:48;2.35;;;2.15;;
6735;SDS011;3405;50.576;12.364;2023-04-08T04:11:15;2.00;;;1.80;;
6735;SDS011;3405;50.576;12.364;2023-04-08T04:13:40;1.92;;;1.70;;
6735;SDS011;3405;50.576;12.364;2023-04-08T04:16:06;2.67;;;1.90;;
6735;SDS011;3405;50.576;12.364;2023-04-08T04:18:32;1.85;;;1.75;;
6735;SDS011;3405;50.576;12.364;2023-04-08T04:20:58;2.30;;;2.10;;
6735;SDS011;3405;50.576;12.364;2023-04-08T04:23:24;2.20;;;2.00;;
6735;SDS011;3405;50.576;12.364;2023-04-08T04:25:50;2.15;;;1.90;;
6735;SDS011;3405;50.576;12.364;2023-04-08T04:28:16;2.10;;;2.00;;
6735;SDS011;3405;50.576;12.364;2023-04-08T04:30:42;2.03;;;1.92;;
6735;SDS011;3405;50.576;12.364;2023-04-08T04:33:09;2.20;;;2.00;;
6735;SDS011;3405;50.576;12.364;2023-04-08T04:35:35;2.22;;;2.03;;
6735;SDS011;3405;50.576;12.364;2023-04-08T04:38:01;2.80;;;2.20;;
6735;SDS011;3405;50.576;12.364;2023-04-08T04:40:27;2.50;;;2.25;;
6735;SDS011;3405;50.576;12.364;2023-04-08T04:42:53;3.03;;;2.00;;
6735;SDS011;3405;50.576;12.364;2023-04-08T04:45:19;1.98;;;1.80;;
6735;SDS011;3405;50.576;12.364;2023-04-08T04:47:45;2.20;;;1.90;;
6735;SDS011;3405;50.576;12.364;2023-04-08T04:50:11;2.10;;;1.60;;
6735;SDS011;3405;50.576;12.364;2023-04-08T04:52:37;1.77;;;1.67;;
6735;SDS011;3405;50.576;12.364;2023-04-08T04:55:03;1.50;;;1.40;;
6735;SDS011;3405;50.576;12.364;2023-04-08T04:57:29;1.98;;;1.73;;
6735;SDS011;3405;50.576;12.364;2023-04-08T04:59:55;2.05;;;1.48;;
6735;SDS011;3405;50.576;12.364;2023-04-08T05:02:21;3.10;;;1.45;;
6735;SDS011;3405;50.576;12.364;2023-04-08T05:04:47;1.30;;;1.10;;
6735;SDS011;3405;50.576;12.364;2023-04-08T05:07:12;1.65;;;1.15;;
6735;SDS011;3405;50.576;12.364;2023-04-08T05:09:38;1.00;;;1.00;;
6735;SDS011;3405;50.576;12.364;2023-04-08T05:12:04;1.40;;;1.00;;
6735;SDS011;3405;50.576;12.364;2023-04-08T05:14:30;1.00;;;1.00;;
6735;SDS011;3405;50.576;12.364;2023-04-08T05:16:57;1.50;;;1.10;;
6735;SDS011;3405;50.576;12.364;2023-04-08T05:19:23;1.23;;;1.10;;
6735;SDS011;3405;50.576;12.364;2023-04-08T05:21:49;2.00;;;0.95;;
6735;SDS011;3405;50.576;12.364;2023-04-08T05:24:15;1.00;;;1.00;;
6735;SDS011;3405;50.576;12.364;2023-04-08T05:26:41;0.93;;;0.93;;
6735;SDS011;3405;50.576;12.364;2023-04-08T05:29:07;0.98;;;0.88;;
6735;SDS011;3405;50.576;12.364;2023-04-08T05:31:33;1.00;;;0.90;;
6735;SDS011;3405;50.576;12.364;2023-04-08T05:33:59;1.58;;;0.90;;
6735;SDS011;3405;50.576;12.364;2023-04-08T05:36:25;1.38;;;0.98;;
6735;SDS011;3405;50.576;12.364;2023-04-08T05:38:51;1.10;;;0.95;;
6735;SDS011;3405;50.576;12.364;2023-04-08T05:41:17;0.75;;;0.75;;
6735;SDS011;3405;50.576;12.364;2023-04-08T05:43:43;0.90;;;0.90;;
6735;SDS011;3405;50.576;12.364;2023-04-08T05:46:09;1.27;;;0.95;;
6735;SDS011;3405;50.576;12.364;2023-04-08T05:48:35;1.65;;;0.93;;
6735;SDS011;3405;50.576;12.364;2023-04-08T05:51:01;1.17;;;1.08;;
6735;SDS011;3405;50.576;12.364;2023-04-08T05:53:27;1.23;;;1.05;;
6735;SDS011;3405;50.576;12.364;2023-04-08T05:55:53;1.10;;;0.90;;
6735;SDS011;3405;50.576;12.364;2023-04-08T05:58:19;0.98;;;0.90;;
6735;SDS011;3405;50.576;12.364;2023-04-08T06:00:45;1.52;;;1.00;;
6735;SDS011;3405;50.576;12.364;2023-04-08T06:03:11;0.88;;;0.88;;
6735;SDS011;3405;50.576;12.364;2023-04-08T06:05:37;1.00;;;0.95;;
6735;SDS011;3405;50.576;12.364;2023-04-08T06:08:03;1.10;;;1.00;;
6735;SDS011;3405;50.576;12.364;2023-04-08T06:10:29;0.90;;;0.90;;
6735;SDS011;3405;50.576;12.364;2023-04-08T06:12:55;1.08;;;1.02;;
6735;SDS011;3405;50.576;12.364;2023-04-08T06:15:21;0.95;;;0.95;;
6735;SDS011;3405;50.576;12.364;2023-04-08T06:17:47;1.00;;;0.90;;
6735;SDS011;3405;50.576;12.364;2023-04-08T06:20:13;1.60;;;1.50;;
6735;SDS011;3405;50.576;12.364;2023-04-08T06:22:39;1.85;;;1.75;;
6735;SDS011;3405;50.576;12.364;2023-04-08T06:25:05;1.38;;;1.25;;
6735;SDS011;3405;50.576;12.364;2023-04-08T06:27:31;1.42;;;1.27;;
6735;SDS011;3405;50.576;12.364;2023-04-08T06:29:57;2.53;;;1.33;;
6735;SDS011;3405;50.576;12.364;2023-04-08T06:32:23;1.25;;;1.15;;
6735;SDS011;3405;50.576;12.364;2023-04-08T06:34:49;1.25;;;1.13;;
6735;SDS011;3405;50.576;12.364;2023-04-08T06:37:15;2.50;;;1.10;;
6735;SDS011;3405;50.576;12.364;2023-04-08T06:39:41;4.45;;;1.33;;
6735;SDS011;3405;50.576;12.364;2023-04-08T06:42:07;3.70;;;1.10;;
6735;SDS011;3405;50.576;12.364;2023-04-08T06:44:33;2.40;;;1.38;;
6735;SDS011;3405;50.576;12.364;2023-04-08T06:46:58;2.22;;;1.15;;
6735;SDS011;3405;50.576;12.364;2023-04-08T06:49:24;2.25;;;1.20;;
6735;SDS011;3405;50.576;12.364;2023-04-08T06:51:51;1.67;;;1.10;;
6735;SDS011;3405;50.576;12.364;2023-04-08T06:54:17;1.52;;;1.35;;
6735;SDS011;3405;50.576;12.364;2023-04-08T06:56:43;1.98;;;1.33;;
6735;SDS011;3405;50.576;12.364;2023-04-08T06:59:09;1.60;;;1.20;;
6735;SDS011;3405;50.576;12.364;2023-04-08T07:01:35;1.88;;;0.95;;
6735;SDS011;3405;50.576;12.364;2023-04-08T07:04:01;2.72;;;1.65;;
6735;SDS011;3405;50.576;12.364;2023-04-08T07:06:27;5.07;;;2.88;;
6735;SDS011;3405;50.576;12.364;2023-04-08T07:08:53;7.05;;;3.42;;
6735;SDS011;3405;50.576;12.364;2023-04-08T07:11:19;5.65;;;3.40;;
6735;SDS011;3405;50.576;12.364;2023-04-08T07:13:45;5.55;;;3.70;;
6735;SDS011;3405;50.576;12.364;2023-04-08T07:16:11;5.90;;;4.00;;
6735;SDS011;3405;50.576;12.364;2023-04-08T07:18:37;8.07;;;4.53;;
6735;SDS011;3405;50.576;12.364;2023-04-08T07:39:38;9.18;;;5.07;;
6735;SDS011;3405;50.576;12.364;2023-04-08T07:42:04;7.57;;;4.90;;
6735;SDS011;3405;50.576;12.364;2023-04-08T07:44:30;8.23;;;4.38;;
6735;SDS011;3405;50.576;12.364;2023-04-08T07:46:56;7.05;;;4.45;;
6735;SDS011;3405;50.576;12.364;2023-04-08T07:49:22;8.43;;;4.95;;
6735;SDS011;3405;50.576;12.364;2023-04-08T07:51:48;8.70;;;5.28;;
6735;SDS011;3405;50.576;12.364;2023-04-08T07:54:14;7.47;;;4.75;;
6735;SDS011;3405;50.576;12.364;2023-04-08T07:56:41;7.90;;;5.10;;
6735;SDS011;3405;50.576;12.364;2023-04-08T07:59:08;8.38;;;5.00;;
6735;SDS011;3405;50.576;12.364;2023-04-08T08:01:35;8.27;;;5.22;;
6735;SDS011;3405;50.576;12.364;2023-04-08T08:04:01;8.70;;;5.10;;
6735;SDS011;3405;50.576;12.364;2023-04-08T08:06:27;8.15;;;4.95;;
6735;SDS011;3405;50.576;12.364;2023-04-08T08:08:53;6.93;;;4.70;;
6735;SDS011;3405;50.576;12.364;2023-04-08T08:11:19;8.00;;;4.70;;
6735;SDS011;3405;50.576;12.364;2023-04-08T08:13:46;6.95;;;4.75;;
6735;SDS011;3405;50.576;12.364;2023-04-08T08:16:12;7.10;;;4.95;;
6735;SDS011;3405;50.576;12.364;2023-04-08T08:18:38;7.25;;;4.55;;
6735;SDS011;3405;50.576;12.364;2023-04-08T08:21:07;7.78;;;4.78;;
6735;SDS011;3405;50.576;12.364;2023-04-08T08:23:33;7.07;;;4.70;;
6735;SDS011;3405;50.576;12.364;2023-04-08T08:26:00;6.53;;;4.72;;
6735;SDS011;3405;50.576;12.364;2023-04-08T08:28:26;7.85;;;5.10;;
6735;SDS011;3405;50.576;12.364;2023-04-08T08:30:53;8.18;;;4.57;;
6735;SDS011;3405;50.576;12.364;2023-04-08T08:33:18;7.30;;;4.78;;
6735;SDS011;3405;50.576;12.364;2023-04-08T08:35:45;8.35;;;5.20;;
6735;SDS011;3405;50.576;12.364;2023-04-08T08:38:10;6.57;;;4.40;;
6735;SDS011;3405;50.576;12.364;2023-04-08T08:40:37;8.60;;;4.07;;
6735;SDS011;3405;50.576;12.364;2023-04-08T08:43:03;6.40;;;4.22;;
6735;SDS011;3405;50.576;12.364;2023-04-08T08:45:29;6.95;;;4.50;;
6735;SDS011;3405;50.576;12.364;2023-04-08T08:47:55;6.20;;;4.50;;
6735;SDS011;3405;50.576;12.364;2023-04-08T08:50:21;5.60;;;4.15;;
6735;SDS011;3405;50.576;12.364;2023-04-08T08:52:48;7.75;;;4.22;;
6735;SDS011;3405;50.576;12.364;2023-04-08T08:55:14;5.63;;;4.18;;
6735;SDS011;3405;50.576;12.364;2023-04-08T08:57:40;6.13;;;4.15;;
6735;SDS011;3405;50.576;12.364;2023-04-08T09:00:07;5.00;;;4.00;;
6735;SDS011;3405;50.576;12.364;2023-04-08T09:02:33;5.38;;;3.92;;
6735;SDS011;3405;50.576;12.364;2023-04-08T09:05:00;6.70;;;4.35;;
6735;SDS011;3405;50.576;12.364;2023-04-08T09:07:27;6.13;;;4.10;;
6735;SDS011;3405;50.576;12.364;2023-04-08T09:09:53;5.82;;;3.95;;
6735;SDS011;3405;50.576;12.364;2023-04-08T09:12:19;7.65;;;3.63;;
6735;SDS011;3405;50.576;12.364;2023-04-08T09:14:45;9.65;;;3.83;;
6735;SDS011;3405;50.576;12.364;2023-04-08T09:17:12;4.78;;;3.50;;
6735;SDS011;3405;50.576;12.364;2023-04-08T09:19:38;4.88;;;3.45;;
6735;SDS011;3405;50.576;12.364;2023-04-08T09:22:10;6.50;;;4.00;;
6735;SDS011;3405;50.576;12.364;2023-04-08T09:24:36;4.82;;;3.63;;
6735;SDS011;3405;50.576;12.364;2023-04-08T09:27:05;6.10;;;4.13;;
6735;SDS011;3405;50.576;12.364;2023-04-08T09:29:31;5.72;;;3.75;;
6735;SDS011;3405;50.576;12.364;2023-04-08T09:31:59;4.95;;;3.80;;
6735;SDS011;3405;50.576;12.364;2023-04-08T09:34:25;5.25;;;3.97;;
6735;SDS011;3405;50.576;12.364;2023-04-08T09:36:52;5.90;;;3.78;;
6735;SDS011;3405;50.576;12.364;2023-04-08T09:39:18;5.70;;;3.78;;
6735;SDS011;3405;50.576;12.364;2023-04-08T09:41:46;4.47;;;3.60;;
6735;SDS011;3405;50.576;12.364;2023-04-08T09:44:13;3.83;;;3.35;;
6735;SDS011;3405;50.576;12.364;2023-04-08T09:49:26;4.88;;;3.13;;
6735;SDS011;3405;50.576;12.364;2023-04-08T09:54:24;3.85;;;3.00;;
6735;SDS011;3405;50.576;12.364;2023-04-08T09:57:08;4.57;;;3.10;;
6735;SDS011;3405;50.576;12.364;2023-04-08T09:59:35;3.67;;;2.97;;
6735;SDS011;3405;50.576;12.364;2023-04-08T10:02:03;4.15;;;3.25;;
6735;SDS011;3405;50.576;12.364;2023-04-08T10:04:30;4.40;;;3.33;;
6735;SDS011;3405;50.576;12.364;2023-04-08T10:06:58;3.95;;;2.90;;
6735;SDS011;3405;50.576;12.364;2023-04-08T10:09:26;4.32;;;3.03;;
6735;SDS011;3405;50.576;12.364;2023-04-08T10:11:52;4.22;;;3.38;;
6735;SDS011;3405;50.576;12.364;2023-04-08T10:14:18;3.70;;;2.60;;
6735;SDS011;3405;50.576;12.364;2023-04-08T10:16:46;3.22;;;2.80;;
6735;SDS011;3405;50.576;12.364;2023-04-08T10:21:56;3.53;;;2.88;;
6735;SDS011;3405;50.576;12.364;2023-04-08T10:24:22;3.72;;;3.10;;
6735;SDS011;3405;50.576;12.364;2023-04-08T10:26:49;4.15;;;2.83;;
6735;SDS011;3405;50.576;12.364;2023-04-08T10:31:45;3.90;;;2.83;;
6735;SDS011;3405;50.576;12.364;2023-04-08T10:34:21;3.53;;;2.80;;
6735;SDS011;3405;50.576;12.364;2023-04-08T10:36:51;3.40;;;2.53;;
6735;SDS011;3405;50.576;12.364;2023-04-08T10:39:17;4.13;;;2.83;;
6735;SDS011;3405;50.576;12.364;2023-04-08T10:41:47;3.70;;;2.70;;
6735;SDS011;3405;50.576;12.364;2023-04-08T10:44:20;2.85;;;2.47;;
6735;SDS011;3405;50.576;12.364;2023-04-08T10:46:47;4.30;;;2.80;;
6735;SDS011;3405;50.576;12.364;2023-04-08T10:49:13;3.22;;;2.42;;
6735;SDS011;3405;50.576;12.364;2023-04-08T10:51:40;3.38;;;2.60;;
6735;SDS011;3405;50.576;12.364;2023-04-08T10:54:08;4.18;;;2.70;;
6735;SDS011;3405;50.576;12.364;2023-04-08T10:56:35;2.70;;;2.42;;
6735;SDS011;3405;50.576;12.364;2023-04-08T10:59:01;3.22;;;2.50;;
6735;SDS011;3405;50.576;12.364;2023-04-08T11:01:36;3.35;;;2.40;;
6735;SDS011;3405;50.576;12.364;2023-04-08T11:04:06;3.70;;;2.53;;
6735;SDS011;3405;50.576;12.364;2023-04-08T11:06:32;2.72;;;2.10;;
6735;SDS011;3405;50.576;12.364;2023-04-08T11:09:01;2.97;;;2.28;;
6735;SDS011;3405;50.576;12.364;2023-04-08T11:11:29;3.05;;;2.42;;
6735;SDS011;3405;50.576;12.364;2023-04-08T11:13:55;3.88;;;2.33;;
6735;SDS011;3405;50.576;12.364;2023-04-08T11:16:21;2.75;;;2.40;;
6735;SDS011;3405;50.576;12.364;2023-04-08T11:18:47;3.13;;;2.22;;
6735;SDS011;3405;50.576;12.364;2023-04-08T11:21:15;2.75;;;2.38;;
6735;SDS011;3405;50.576;12.364;2023-04-08T11:23:41;3.90;;;2.55;;
6735;SDS011;3405;50.576;12.364;2023-04-08T11:26:07;3.75;;;2.40;;
6735;SDS011;3405;50.576;12.364;2023-04-08T11:28:33;2.95;;;2.22;;
6735;SDS011;3405;50.576;12.364;2023-04-08T11:30:59;2.83;;;2.30;;
6735;SDS011;3405;50.576;12.364;2023-04-08T11:33:29;3.50;;;2.58;;
6735;SDS011;3405;50.576;12.364;2023-04-08T11:35:56;2.90;;;2.42;;
6735;SDS011;3405;50.576;12.364;2023-04-08T11:38:22;2.92;;;2.55;;
6735;SDS011;3405;50.576;12.364;2023-04-08T11:40:55;3.42;;;2.58;;
6735;SDS011;3405;50.576;12.364;2023-04-08T11:43:22;3.45;;;2.58;;
6735;SDS011;3405;50.576;12.364;2023-04-08T11:45:48;3.22;;;2.35;;
6735;SDS011;3405;50.576;12.364;2023-04-08T11:48:15;3.28;;;2.45;;
6735;SDS011;3405;50.576;12.364;2023-04-08T11:50:41;2.80;;;2.47;;
6735;SDS011;3405;50.576;12.364;2023-04-08T11:53:17;3.08;;;2.65;;
6735;SDS011;3405;50.576;12.364;2023-04-08T11:55:46;2.80;;;2.42;;
6735;SDS011;3405;50.576;12.364;2023-04-08T11:58:12;3.05;;;2.42;;
6735;SDS011;3405;50.576;12.364;2023-04-08T12:00:38;2.88;;;2.20;;
6735;SDS011;3405;50.576;12.364;2023-04-08T12:03:05;4.32;;;2.90;;
6735;SDS011;3405;50.576;12.364;2023-04-08T12:05:31;2.97;;;2.55;;
6735;SDS011;3405;50.576;12.364;2023-04-08T12:07:57;2.95;;;2.40;;
6735;SDS011;3405;50.576;12.364;2023-04-08T12:10:23;3.65;;;2.60;;
6735;SDS011;3405;50.576;12.364;2023-04-08T12:12:49;3.08;;;2.20;;
6735;SDS011;3405;50.576;12.364;2023-04-08T12:15:15;3.15;;;2.60;;
6735;SDS011;3405;50.576;12.364;2023-04-08T12:17:41;2.40;;;2.10;;
6735;SDS011;3405;50.576;12.364;2023-04-08T12:20:10;2.83;;;2.42;;
6735;SDS011;3405;50.576;12.364;2023-04-08T12:22:37;3.03;;;2.60;;
6735;SDS011;3405;50.576;12.364;2023-04-08T12:25:03;2.83;;;2.55;;
6735;SDS011;3405;50.576;12.364;2023-04-08T12:27:29;2.97;;;2.67;;
6735;SDS011;3405;50.576;12.364;2023-04-08T12:29:57;2.78;;;2.17;;
6735;SDS011;3405;50.576;12.364;2023-04-08T12:32:23;2.85;;;2.50;;
6735;SDS011;3405;50.576;12.364;2023-04-08T12:34:49;2.88;;;2.58;;
6735;SDS011;3405;50.576;12.364;2023-04-08T12:37:15;2.53;;;2.28;;
6735;SDS011;3405;50.576;12.364;2023-04-08T12:39:41;3.70;;;2.40;;
6735;SDS011;3405;50.576;12.364;2023-04-08T12:42:07;3.38;;;2.60;;
6735;SDS011;3405;50.576;12.364;2023-04-08T12:44:33;3.05;;;2.53;;
6735;SDS011;3405;50.576;12.364;2023-04-08T12:46:59;2.90;;;2.40;;
6735;SDS011;3405;50.576;12.364;2023-04-08T12:49:25;3.20;;;2.63;;
6735;SDS011;3405;50.576;12.364;2023-04-08T12:51:51;3.20;;;2.72;;
6735;SDS011;3405;50.576;12.364;2023-04-08T12:54:17;2.75;;;2.40;;
6735;SDS011;3405;50.576;12.364;2023-04-08T12:56:43;3.03;;;2.60;;
6735;SDS011;3405;50.576;12.364;2023-04-08T12:59:09;2.80;;;2.40;;
6735;SDS011;3405;50.576;12.364;2023-04-08T13:01:35;3.03;;;2.58;;
6735;SDS011;3405;50.576;12.364;2023-04-08T13:04:01;2.50;;;2.22;;
6735;SDS011;3405;50.576;12.364;2023-04-08T13:06:27;2.88;;;2.58;;
6735;SDS011;3405;50.576;12.364;2023-04-08T13:08:53;3.05;;;2.40;;
6735;SDS011;3405;50.576;12.364;2023-04-08T13:11:19;2.85;;;2.47;;
6735;SDS011;3405;50.576;12.364;2023-04-08T13:13:46;2.80;;;2.50;;
6735;SDS011;3405;50.576;12.364;2023-04-08T13:16:12;3.85;;;2.65;;
6735;SDS011;3405;50.576;12.364;2023-04-08T13:18:39;2.17;;;1.98;;
6735;SDS011;3405;50.576;12.364;2023-04-08T13:21:05;2.80;;;2.50;;
6735;SDS011;3405;50.576;12.364;2023-04-08T13:23:31;2.53;;;2.33;;
6735;SDS011;3405;50.576;12.364;2023-04-08T13:25:57;2.70;;;2.33;;
6735;SDS011;3405;50.576;12.364;2023-04-08T13:28:23;2.65;;;2.30;;
6735;SDS011;3405;50.576;12.364;2023-04-08T13:30:49;3.75;;;2.50;;
6735;SDS011;3405;50.576;12.364;2023-04-08T13:33:15;3.65;;;2.50;;
6735;SDS011;3405;50.576;12.364;2023-04-08T13:35:41;3.35;;;2.55;;
6735;SDS011;3405;50.576;12.364;2023-04-08T13:38:07;3.00;;;2.40;;
6735;SDS011;3405;50.576;12.364;2023-04-08T13:40:32;4.65;;;2.72;;
6735;SDS011;3405;50.576;12.364;2023-04-08T13:42:58;4.05;;;2.88;;
6735;SDS011;3405;50.576;12.364;2023-04-08T13:45:25;5.43;;;3.05;;
6735;SDS011;3405;50.576;12.364;2023-04-08T13:47:51;3.67;;;2.92;;
6735;SDS011;3405;50.576;12.364;2023-04-08T13:50:17;4.78;;;2.90;;
6735;SDS011;3405;50.576;12.364;2023-04-08T13:52:43;5.88;;;2.90;;
6735;SDS011;3405;50.576;12.364;2023-04-08T13:55:09;3.42;;;2.75;;
6735;SDS011;3405;50.576;12.364;2023-04-08T13:57:35;2.92;;;2.70;;
6735;SDS011;3405;50.576;12.364;2023-04-08T14:00:01;3.40;;;2.90;;
6735;SDS011;3405;50.576;12.364;2023-04-08T14:02:27;3.53;;;3.00;;
6735;SDS011;3405;50.576;12.364;2023-04-08T14:04:53;3.80;;;2.90;;
6735;SDS011;3405;50.576;12.364;2023-04-08T14:07:19;3.22;;;2.78;;
6735;SDS011;3405;50.576;12.364;2023-04-08T14:09:45;4.95;;;2.50;;
6735;SDS011;3405;50.576;12.364;2023-04-08T14:12:11;3.08;;;2.78;;
6735;SDS011;3405;50.576;12.364;2023-04-08T14:14:37;3.13;;;2.80;;
6735;SDS011;3405;50.576;12.364;2023-04-08T14:17:03;3.03;;;2.70;;
6735;SDS011;3405;50.576;12.364;2023-04-08T14:19:28;3.85;;;2.97;;
6735;SDS011;3405;50.576;12.364;2023-04-08T14:21:55;2.83;;;2.53;;
6735;SDS011;3405;50.576;12.364;2023-04-08T14:24:21;3.10;;;2.80;;
6735;SDS011;3405;50.576;12.364;2023-04-08T14:26:46;3.25;;;2.65;;
6735;SDS011;3405;50.576;12.364;2023-04-08T14:29:12;3.50;;;2.53;;
6735;SDS011;3405;50.576;12.364;2023-04-08T14:31:38;3.10;;;2.78;;
6735;SDS011;3405;50.576;12.364;2023-04-08T14:34:04;3.00;;;2.70;;
6735;SDS011;3405;50.576;12.364;2023-04-08T14:36:30;3.13;;;2.60;;
6735;SDS011;3405;50.576;12.364;2023-04-08T14:38:56;4.15;;;2.83;;
6735;SDS011;3405;50.576;12.364;2023-04-08T14:41:22;3.33;;;2.90;;
6735;SDS011;3405;50.576;12.364;2023-04-08T14:43:50;4.10;;;3.20;;
6735;SDS011;3405;50.576;12.364;2023-04-08T14:46:16;3.53;;;3.08;;
6735;SDS011;3405;50.576;12.364;2023-04-08T14:48:42;3.38;;;2.85;;
6735;SDS011;3405;50.576;12.364;2023-04-08T14:51:08;4.20;;;3.35;;
6735;SDS011;3405;50.576;12.364;2023-04-08T14:53:34;4.30;;;3.40;;
6735;SDS011;3405;50.576;12.364;2023-04-08T14:56:00;4.45;;;3.15;;
6735;SDS011;3405;50.576;12.364;2023-04-08T14:58:26;3.95;;;3.28;;
6735;SDS011;3405;50.576;12.364;2023-04-08T15:00:52;3.38;;;3.03;;
6735;SDS011;3405;50.576;12.364;2023-04-08T15:03:18;4.20;;;3.30;;
6735;SDS011;3405;50.576;12.364;2023-04-08T15:05:44;4.07;;;3.22;;
6735;SDS011;3405;50.576;12.364;2023-04-08T15:08:10;4.50;;;3.47;;
6735;SDS011;3405;50.576;12.364;2023-04-08T15:10:36;3.67;;;2.92;;
6735;SDS011;3405;50.576;12.364;2023-04-08T15:13:02;4.45;;;3.38;;
6735;SDS011;3405;50.576;12.364;2023-04-08T15:15:28;4.35;;;3.40;;
6735;SDS011;3405;50.576;12.364;2023-04-08T15:17:54;3.60;;;3.20;;
6735;SDS011;3405;50.576;12.364;2023-04-08T15:20:20;3.80;;;3.10;;
6735;SDS011;3405;50.576;12.364;2023-04-08T15:22:46;4.40;;;3.35;;
6735;SDS011;3405;50.576;12.364;2023-04-08T15:25:12;4.68;;;3.38;;